DAL341 KIWA-MMPR
Flight info
| Callsign | DAL341 |
|---|---|
| Flight time | N/A |
| Altitude | 37000 |
| Route | BNYRD6 TUS J92 VYLLA UT12 CUL UJ7 MZT J141 OBRUG OBRUG1A |
| Aircraft | B738/M-SDE2E3FGHIRWXY/LB1 |
Departure
| Time | N/A |
|---|---|
| Airport | Mesa Gateway Airport (KIWA) |
Arrival
| Time | 2026-04-30 18:27 |
|---|---|
| Airport | Puerto Vallarta International Airport (MMPR) |
| Time | Latitude | Longitude | Altitude | Speed | Heading |
|---|---|---|---|---|---|
| 2026-04-30 17:39 | 24.66561 | -107.40260 | 36861 ft | 466 kts | 151° |
| 2026-04-30 17:42 | 24.39880 | -107.19841 | 36841 ft | 469 kts | 152° |
| 2026-04-30 17:43 | 24.26407 | -107.09642 | 36842 ft | 471 kts | 152° |
| 2026-04-30 17:44 | 24.10185 | -106.97387 | 36851 ft | 473 kts | 152° |
| 2026-04-30 17:47 | 23.85798 | -106.79046 | 36851 ft | 473 kts | 152° |
| 2026-04-30 17:48 | 23.66838 | -106.64851 | 36859 ft | 473 kts | 152° |
| 2026-04-30 17:50 | 23.45110 | -106.48645 | 36866 ft | 473 kts | 152° |
| 2026-04-30 17:52 | 23.28833 | -106.36544 | 36871 ft | 473 kts | 151° |
| 2026-04-30 17:54 | 23.03258 | -106.21604 | 36870 ft | 459 kts | 165° |
| 2026-04-30 17:56 | 22.79462 | -106.11556 | 36874 ft | 459 kts | 164° |
| 2026-04-30 17:58 | 22.61797 | -106.04083 | 36855 ft | 432 kts | 164° |
| 2026-04-30 17:59 | 22.51188 | -105.99604 | 36881 ft | 404 kts | 164° |
| 2026-04-30 18:00 | 22.40442 | -105.95100 | 35918 ft | 426 kts | 164° |
| 2026-04-30 18:00 | 22.31817 | -105.91475 | 33495 ft | 450 kts | 163° |
| 2026-04-30 18:01 | 22.26060 | -105.89044 | 32904 ft | 436 kts | 163° |
| 2026-04-30 18:02 | 22.17712 | -105.85540 | 31702 ft | 426 kts | 163° |
| 2026-04-30 18:02 | 22.09520 | -105.82108 | 30650 ft | 414 kts | 163° |
| 2026-04-30 18:03 | 22.01575 | -105.78781 | 29554 ft | 404 kts | 163° |
| 2026-04-30 18:04 | 21.93762 | -105.75515 | 28235 ft | 397 kts | 163° |
| 2026-04-30 18:05 | 21.83594 | -105.71267 | 26625 ft | 388 kts | 163° |
| 2026-04-30 18:06 | 21.73930 | -105.66378 | 25126 ft | 384 kts | 151° |
| 2026-04-30 18:07 | 21.65008 | -105.60298 | 23732 ft | 376 kts | 152° |
| 2026-04-30 18:08 | 21.58377 | -105.55907 | 22601 ft | 369 kts | 152° |
| 2026-04-30 18:09 | 21.49753 | -105.50237 | 21164 ft | 358 kts | 151° |
| 2026-04-30 18:10 | 21.41334 | -105.44709 | 19424 ft | 349 kts | 150° |
| 2026-04-30 18:11 | 21.33169 | -105.39354 | 17774 ft | 340 kts | 150° |
| 2026-04-30 18:11 | 21.27205 | -105.35449 | 16521 ft | 332 kts | 150° |
| 2026-04-30 18:12 | 21.21349 | -105.31618 | 15309 ft | 324 kts | 150° |
| 2026-04-30 18:13 | 21.17518 | -105.29114 | 14543 ft | 319 kts | 150° |
| 2026-04-30 18:13 | 21.12655 | -105.25935 | 13957 ft | 300 kts | 150° |
| 2026-04-30 18:14 | 21.08539 | -105.23249 | 12982 ft | 299 kts | 150° |
| 2026-04-30 18:15 | 21.03162 | -105.19741 | 11690 ft | 302 kts | 149° |
| 2026-04-30 18:15 | 20.97797 | -105.16242 | 10501 ft | 303 kts | 148° |
| 2026-04-30 18:16 | 20.94253 | -105.13934 | 9875 ft | 290 kts | 148° |
| 2026-04-30 18:16 | 20.90965 | -105.11669 | 9319 ft | 275 kts | 140° |
| 2026-04-30 18:17 | 20.89501 | -105.10372 | 9005 ft | 272 kts | 138° |
| 2026-04-30 18:17 | 20.88524 | -105.09487 | 8843 ft | 271 kts | 138° |
| 2026-04-30 18:17 | 20.85332 | -105.07604 | 8275 ft | 271 kts | 180° |
| 2026-04-30 18:18 | 20.83517 | -105.08012 | 8078 ft | 265 kts | 208° |
| 2026-04-30 18:18 | 20.82050 | -105.09167 | 7790 ft | 262 kts | 227° |
| 2026-04-30 18:18 | 20.80793 | -105.10588 | 7592 ft | 260 kts | 230° |
| 2026-04-30 18:18 | 20.79755 | -105.12128 | 7452 ft | 252 kts | 250° |
| 2026-04-30 18:19 | 20.79423 | -105.13918 | 7287 ft | 243 kts | 275° |
| 2026-04-30 18:19 | 20.79829 | -105.15639 | 7029 ft | 243 kts | 301° |
| 2026-04-30 18:19 | 20.80911 | -105.16994 | 6743 ft | 241 kts | 327° |
| 2026-04-30 18:19 | 20.82425 | -105.17657 | 6544 ft | 235 kts | 352° |
| 2026-04-30 18:20 | 20.84034 | -105.17530 | 6359 ft | 232 kts | 15° |
| 2026-04-30 18:20 | 20.85464 | -105.16748 | 6079 ft | 233 kts | 38° |
| 2026-04-30 18:20 | 20.86629 | -105.15541 | 5818 ft | 234 kts | 45° |
| 2026-04-30 18:20 | 20.87719 | -105.14243 | 5620 ft | 230 kts | 52° |
| 2026-04-30 18:21 | 20.88240 | -105.12690 | 5521 ft | 220 kts | 87° |
| 2026-04-30 18:21 | 20.87892 | -105.11161 | 5319 ft | 215 kts | 121° |
| 2026-04-30 18:21 | 20.86826 | -105.10074 | 5042 ft | 213 kts | 154° |
| 2026-04-30 18:21 | 20.85426 | -105.09703 | 4875 ft | 205 kts | 182° |
| 2026-04-30 18:22 | 20.84054 | -105.09977 | 4657 ft | 200 kts | 198° |
| 2026-04-30 18:22 | 20.81391 | -105.10881 | 4118 ft | 200 kts | 199° |
| 2026-04-30 18:22 | 20.80155 | -105.11481 | 3851 ft | 197 kts | 223° |
| 2026-04-30 18:23 | 20.79255 | -105.12518 | 3792 ft | 183 kts | 229° |
| 2026-04-30 18:23 | 20.78384 | -105.13501 | 3671 ft | 180 kts | 227° |
| 2026-04-30 18:23 | 20.77534 | -105.14481 | 3492 ft | 177 kts | 229° |
| 2026-04-30 18:23 | 20.76696 | -105.15473 | 3270 ft | 180 kts | 227° |
| 2026-04-30 18:24 | 20.74993 | -105.17404 | 2832 ft | 171 kts | 230° |
| 2026-04-30 18:24 | 20.74171 | -105.18359 | 2622 ft | 173 kts | 227° |
| 2026-04-30 18:24 | 20.73361 | -105.19259 | 2488 ft | 161 kts | 225° |
| 2026-04-30 18:25 | 20.72636 | -105.20122 | 2189 ft | 155 kts | 230° |
| 2026-04-30 18:25 | 20.71137 | -105.21852 | 1352 ft | 165 kts | 226° |
| 2026-04-30 18:25 | 20.70384 | -105.22760 | 933 ft | 162 kts | 227° |
| 2026-04-30 18:26 | 20.68816 | -105.24491 | 59 ft | 151 kts | 230° |
| 2026-04-30 18:26 | 20.68162 | -105.25238 | 30 ft | 126 kts | 228° |
| 2026-04-30 18:26 | 20.67696 | -105.25776 | 28 ft | 57 kts | 226° |
| 2026-04-30 18:27 | 20.67434 | -105.25957 | 28 ft | 2 kts | 197° |
| 2026-04-30 18:27 | 20.67416 | -105.25962 | 28 ft | 3 kts | 197° |
| 2026-04-30 18:28 | 20.67361 | -105.25917 | 28 ft | 11 kts | 74° |
| 2026-04-30 18:28 | 20.67415 | -105.25840 | 28 ft | 14 kts | 47° |
| 2026-04-30 18:28 | 20.67538 | -105.25697 | 28 ft | 13 kts | 48° |
| 2026-04-30 18:29 | 20.67598 | -105.25630 | 28 ft | 12 kts | 46° |
| 2026-04-30 18:29 | 20.67767 | -105.25435 | 28 ft | 11 kts | 47° |
| 2026-04-30 18:30 | 20.67881 | -105.25305 | 28 ft | 13 kts | 46° |
| 2026-04-30 18:30 | 20.68003 | -105.25164 | 28 ft | 13 kts | 46° |
| 2026-04-30 18:31 | 20.68061 | -105.25097 | 28 ft | 12 kts | 47° |
| 2026-04-30 18:31 | 20.68010 | -105.24959 | 28 ft | 12 kts | 139° |
| 2026-04-30 18:32 | 20.68041 | -105.24824 | 28 ft | 11 kts | 47° |
| 2026-04-30 18:32 | 20.68093 | -105.24765 | 28 ft | 11 kts | 47° |
| 2026-04-30 18:32 | 20.68180 | -105.24688 | 28 ft | 4 kts | 32° |
| 2026-04-30 18:33 | 20.68202 | -105.24666 | 28 ft | 4 kts | 45° |
| 2026-04-30 18:33 | 20.68243 | -105.24618 | 28 ft | 2 kts | 46° |
| 2026-04-30 18:33 | 20.68249 | -105.24612 | 28 ft | 0 kts | 47° |